Historyczne dane pomiarowe

Dodano dane terminowe – wersja testowa.

Dane z okresu 1951-2019

Wersja bazy: 1.34 [2019-03-16, lista zmian], aktualizacja planowana na 2019-04-15

Dane meteo z obszaru Polski uzyskane na podstawie danych udostępnionych przez Instytut Meteorologii i Gospodarki Wodnej – Państwowy Instytut Badawczy.

 

Wybierz Datę:    

       

TemperaturaWilgotnośćWiatrCiśnienieOpadyŚniegCzas trwania zjawisk
 Stacja t tx tn tng RH VA  wxwx mslp ppp RRR   cm mm wxwxwxwxwxwxwx
1999-08-14 15.4 21.6 9.1 3.0 67.3 11.5 3.3 1.7--1011.0 976.6 0.0 0.0 0.0- 0.0 10.8-------
1999-08-13 14.3 20.1 10.1 4.7 73.0 11.5 4.3 3.3--1013.5 978.8 0.0 0.0 0.0- 0.0 6.8-------
1999-08-12 15.8 20.1 12.7 8.1 71.0 12.1 6.3 3.7--1015.7 981.0 0.0 0.0 0.0- 0.0 4.8-------
1999-08-11 19.2 24.1 14.9 11.8 78.0 17.5 4.7 2.3--1012.4 978.2 0.6 0.0 0.6- 0.0 9.4-------
1999-08-10 19.3 24.8 15.5 10.3 87.0 20.2 6.3 2.0--1009.0 974.9 1.6 1.6 0.0- 0.0 1.6-------
1999-08-09 21.7 29.1 17.3 12.4 78.8 20.7 2.3 2.3--1007.1 973.4 1.7 1.7 0.0- 0.0 8.4-------
1999-08-08 22.1 28.2 17.3 13.5 82.5 22.0 6.0 3.3--1003.1 969.6 0.0 0.0 0.0- 0.0 6.9-------
1999-08-07 21.8 29.7 15.1 9.3 78.3 20.9 4.7 1.3--1006.8 973.2 17.4 0.4 17.0- 0.0 8.4-------
1999-08-06 21.2 26.8 16.7 13.1 80.0 20.1 4.0 2.7--1010.6 976.7 0.0 0.0 0.0- 0.0 10.8-------
1999-08-05 19.7 26.6 13.1 6.4 68.3 15.0 4.3 1.0--1014.3 980.3 0.3 0.0 0.3- 0.0 7.8-------
1999-08-04 18.5 25.5 12.1 5.7 68.5 14.5 2.0 1.7--1015.2 981.0 0.0 0.0 0.0- 0.0 12.3-------
1999-08-03 18.4 24.6 12.6 6.4 69.8 14.7 3.3 1.3--1016.1 981.8 0.0 0.0 0.0- 0.0 9.9-------
1999-08-02 18.3 25.1 12.6 6.9 71.0 14.1 4.0 1.7--1017.4 983.0 0.0 0.0 0.0- 0.0 5.7-------
1999-08-01 18.8 24.9 13.3 9.0 67.5 15.7 5.7 2.0--1017.4 983.1 0.1 0.1 0.0- 0.0 7.9-------
1999-07-31 19.5 26.0 12.9 8.2 61.5 13.4 3.7 3.0--1016.2 982.1 0.0 0.0 0.0- 0.0 13.4-------
1999-07-30 18.9 24.8 12.3 6.3 64.3 13.8 2.3 2.3--1016.9 982.6 0.0 0.0 0.0- 0.0 14.5-------
1999-07-29 18.1 23.2 12.7 8.4 67.0 13.3 3.0 2.7--1019.3 984.8 0.0 0.0 0.0- 0.0 11.0-------
1999-07-28 18.1 24.8 11.9 8.4 70.0 14.3 1.7 2.3--1018.1 983.7 0.0 0.0 0.0- 0.0 12.6-------
1999-07-27 19.7 25.4 16.1 13.5 76.5 16.2 4.3 3.0--1018.6 984.2 0.0 0.0 0.0- 0.0 8.9-------
1999-07-26 21.6 26.8 14.3 8.4 68.8 18.3 1.3 1.0--1016.0 982.1 0.0 0.0 0.0- 0.0 11.7-------
1999-07-25 18.5 25.2 11.6 6.3 66.8 14.7 1.0 2.7--1020.3 985.9 0.0 0.0 0.0- 0.0 14.5-------
1999-07-24 16.7 21.6 12.7 8.7 79.8 14.8 5.7 3.7--1020.6 985.9 0.0 0.0 0.0- 0.0 4.5-------
1999-07-23 16.6 19.4 14.6 11.9 81.8 14.8 8.0 1.0--1014.8 980.1 0.4 0.0 0.4- 0.0 0.0-------
1999-07-22 19.0 23.8 16.1 11.9 72.8 14.9 5.3 3.3--1012.4 978.2 0.0 0.0 0.0- 0.0 8.5-------
1999-07-21 21.8 27.6 16.6 12.4 71.8 19.2 4.3 1.7--1011.4 977.6 0.2 0.0 0.2- 0.0 8.7-------
1999-07-20 22.5 28.9 15.6 9.8 59.8 16.2 0.3 3.0--1013.8 980.1 0.5 0.0 0.5- 0.0 14.3-------
1999-07-19 21.3 28.3 14.0 8.4 59.8 15.2 3.0 1.0--1017.2 983.3 0.0 0.0 0.0- 0.0 13.5-------
1999-07-18 19.7 25.8 14.7 6.9 70.3 15.2 1.7 3.0--1019.7 985.4 0.0 0.0 0.0- 0.0 13.7-------
1999-07-17 17.9 23.4 12.1 8.4 79.0 16.6 3.7 1.3--1020.4 985.9 0.0 0.0 0.0- 0.0 11.3-------
1999-07-16 16.1 21.4 11.1 8.1 79.0 15.1 3.3 2.7--1017.1 982.5 0.0 0.0 0.0- 0.0 10.6-------
1999-07-15 16.8 20.4 14.1 11.9 82.5 15.9 4.0 2.7--1011.0 976.6 0.0 0.0 0.0- 0.0 7.1-------
1999-07-14 20.0 26.4 16.5 14.9 86.8 20.9 5.3 3.7--1002.4 968.7 17.2 16.8 0.4- 0.0 6.6-------
1999-07-13 21.0 25.6 17.1 12.4 85.3 22.1 6.0 1.7--1008.2 974.4 6.1 1.2 4.9- 0.0 2.8-------
1999-07-12 21.3 28.0 15.9 11.7 83.3 22.5 4.0 2.7--1015.0 981.1 0.1 0.1 0.0- 0.0 9.1-------
1999-07-11 20.5 24.4 16.1 13.2 71.0 18.9 4.3 3.7--1019.3 985.2 0.2 0.0 0.2- 0.0 4.7-------
1999-07-10 20.6 25.2 16.5 13.9 75.5 18.3 5.0 5.0--1021.4 987.1 0.0 0.0 0.0- 0.0 10.8-------
1999-07-09 18.1 20.6 15.1 13.9 92.8 19.2 7.3 2.7--1022.7 988.0 0.1 0.1 0.0- 0.0 0.1-------
1999-07-08 16.5 19.0 15.1 13.9 92.0 16.4 8.0 4.0--1019.4 984.5 14.6 13.8 0.8- 0.0 0.0-------
1999-07-07 21.3 27.8 18.2 14.9 88.5 21.0 7.0 2.3--1016.7 982.4 19.4 0.7 18.7- 0.0 0.9-------
1999-07-06 26.1 32.0 20.2 15.9 66.0 23.1 2.7 2.0--1009.5 976.2 0.0 0.0 0.0- 0.0 12.6-------
1999-07-05 25.7 32.0 18.5 13.1 65.3 21.8 2.0 2.7--1012.3 978.9 0.0 0.0 0.0- 0.0 13.8-------
1999-07-04 23.3 30.7 15.3 11.9 69.0 21.0 0.7 2.3--1013.2 979.7 0.0 0.0 0.0- 0.0 14.9-------
1999-07-03 20.7 25.8 15.1 11.2 74.0 18.1 1.7 0.7--1015.4 981.3 0.0 0.0 0.0- 0.0 12.9-------
1999-07-02 19.1 24.6 14.5 9.8 81.3 18.0 5.3 2.0--1015.1 980.9 0.0 0.0 0.0- 0.0 9.8-------
1999-07-01 19.6 24.9 15.5 10.0 79.0 18.6 5.0 1.3--1016.4 982.2 0.0 0.0 0.0- 0.0 7.6-------
1999-06-30 20.3 25.0 13.9 9.4 70.0 17.3 4.7 1.7--1017.6 983.5 0.0 0.0 0.0- 0.0 12.7-------
1999-06-29 18.7 23.3 13.5 10.4 72.0 15.8 2.3 2.3--1020.4 985.9 0.0 0.0 0.0- 0.0 13.6-------
1999-06-28 20.0 28.0 14.3 9.5 79.5 20.0 4.7 2.3--1013.0 979.0 0.4 0.0 0.4- 0.0 10.2-------
1999-06-27 20.3 26.9 12.3 7.7 63.8 15.9 2.7 3.0--1012.7 978.8 0.0 0.0 0.0- 0.0 14.6-------
1999-06-26 16.1 23.4 8.9 7.1 76.5 14.2 4.3 2.0--1014.8 980.3 0.0 0.0 0.0- 0.0 10.0-------
1999-06-25 12.6 17.7 6.3 2.2 77.3 11.8 5.0 1.3--1020.8 985.7 6.5 0.0 6.5- 0.0 7.5-------
1999-06-24 12.2 16.5 6.7 1.5 70.5 10.4 5.0 2.3--1023.0 987.7 0.0 0.0 0.0- 0.0 7.1-------
1999-06-23 10.3 12.6 7.3 6.1 91.3 11.9 7.0 4.0--1019.1 983.7 1.5 1.5 0.0- 0.0 0.4-------
1999-06-22 10.4 15.3 8.3 7.1 95.0 10.8 8.0 8.0--1008.8 973.5 42.8 28.4 14.4- 0.0 0.0-------
1999-06-21 17.6 22.8 15.1 11.3 87.8 17.1 6.3 4.0--1006.0 971.7 33.3 0.3 33.0- 0.0 6.4-------
1999-06-20 17.0 21.3 12.5 8.1 84.8 16.4 6.3 1.7--1014.6 980.2 0.0 0.0 0.0- 0.0 3.0-------
1999-06-19 14.5 16.3 12.5 11.7 93.8 15.7 7.7 2.0--1017.4 982.4 0.0 0.0 0.0- 0.0 0.0-------
1999-06-18 16.1 18.2 14.6 13.5 96.0 17.5 8.0 3.3--1012.2 977.6 34.6 26.0 8.6- 0.0 0.0-------
1999-06-17 18.0 21.2 15.6 14.7 88.3 18.2 7.7 1.7--1016.2 981.8 5.2 1.6 3.6- 0.0 0.2-------
1999-06-16 15.6 16.5 14.7 13.9 97.0 17.1 8.0 0.7--1022.1 987.1 1.9 1.9 0.0- 0.0 0.0-------
247.4 ms

 

Źródłem pochodzenia danych jest Instytut Meteorologii i Gospodarki Wodnej – Państwowy Instytut Badawczy. Dane Instytutu Meteorologii i Gospodarki Wodnej – Państwowego Instytutu Badawczego zostały przetworzone.

Dane źródłowe można odnaleźć na stronie https://dane.imgw.pl